CheckWX is a tool to help pilots better visualize weather data.  It is not intended as a substitute for an official pre-flight weather briefing.

10:18:38 UTC

KPGA METAR
Page Municipal Airport
Page, Arizona, USA
Current

26 mins ago

KPGA 160953Z AUTO 00000KT 10SM CLR 26/03 A2996 RMK AO2 SLP065 T02610033 TSNO
Observed
Jul-16 @ 09:53 UTC
Visibility
10 SM
Flight Rules
VFR
Cloud Levels
  • Clear skies
Temperature
26°C / 79°F
Dewpoint
C / 37°F
Humidity
23%
Altimeter
29.96" Hg
Pressure
1014.52 hPa
Previous

1 hour ago

KPGA 160853Z AUTO 00000KT 10SM CLR 28/03 A2996 RMK AO2 SLP064 T02830033 50002 TSNO
Observed
Jul-16 @ 08:53 UTC
Visibility
10 SM
Flight Rules
VFR
Cloud Levels
  • Clear skies
Temperature
28°C / 82°F
Dewpoint
C / 37°F
Humidity
20%
Altimeter
29.96" Hg
Pressure
1014.52 hPa
Previous

2 hours ago

KPGA 160753Z AUTO 29003KT 10SM CLR 29/04 A2997 RMK AO2 SLP066 T02890044 TSNO
Observed
Jul-16 @ 07:53 UTC
Wind
  • 290° at 3 KTS
Visibility
10 SM
Flight Rules
VFR
Cloud Levels
  • Clear skies
Temperature
29°C / 84°F
Dewpoint
C / 39°F
Humidity
20%
Altimeter
29.97" Hg
Pressure
1014.92 hPa